This is the latest recevied weather packets stored in our database for station/object N4CRH-13. If no packets are shown the sender has not sent any weather packets the latest 10 day(s).
| Time | Temp. | Humidity | Pressure | Rain* | Wind** | Luminosity | Snow |
|---|---|---|---|---|---|---|---|
| 1778171816 | 11.67° C | 43% | 1296 hPa | 0 mm | - | 590 W/m² | - |
| 1778171514 | 11.67° C | 42% | 1295.9 hPa | 0 mm | - | 584 W/m² | - |
| 1778171209 | 11.67° C | 43% | 1296.2 hPa | 0 mm | - | 368 W/m² | - |
| 1778170906 | 12.22° C | 41% | 1296 hPa | 0 mm | - | 487 W/m² | - |
| 1778170602 | 11.67° C | 40% | 1296.3 hPa | 0 mm | - | 621 W/m² | - |
| 1778170299 | 11.11° C | 43% | 1296.4 hPa | 0 mm | - | 609 W/m² | - |
| 1778169995 | 11.11° C | 44% | 1296.4 hPa | 0 mm | - | 481 W/m² | - |
| 1778169692 | 10.56° C | 45% | 1296.5 hPa | 0 mm | - | 661 W/m² | - |
| 1778169387 | 11.67° C | 41% | 1296.3 hPa | 0 mm | - | 453 W/m² | - |
| 1778169084 | 11.11° C | 40% | 1296.3 hPa | 0 mm | - | 605 W/m² | - |
| 1778168781 | 10.56° C | 43% | 1296.3 hPa | 0 mm | - | 567 W/m² | - |
| 1778168479 | 10.56° C | 42% | 1296.4 hPa | 0 mm | - | 551 W/m² | - |
| 1778168175 | 10.56° C | 41% | 1296.4 hPa | 0 mm | - | 522 W/m² | - |
| 1778167872 | 10.56° C | 39% | 1296.4 hPa | 0 mm | - | 504 W/m² | - |
| 1778167568 | 10.56° C | 40% | 1296.3 hPa | 0 mm | - | 490 W/m² | - |
| 1778167264 | 10.56° C | 40% | 1296.3 hPa | 0 mm | - | 476 W/m² | - |
| 1778166960 | 10.56° C | 42% | 1296.4 hPa | 0 mm | - | 459 W/m² | - |
| 1778166657 | 9.44° C | 42% | 1296.3 hPa | 0 mm | - | 443 W/m² | - |
| 1778166354 | 10° C | 42% | 1296.4 hPa | 0 mm | - | 427 W/m² | - |
| 1778166051 | 8.89° C | 47% | 1296.5 hPa | 0 mm | - | 412 W/m² | - |
| 1778165746 | 9.44° C | 49% | 1296.7 hPa | 0 mm | - | 396 W/m² | - |
| 1778165444 | 7.78° C | 54% | 1296.5 hPa | 0 mm | - | 384 W/m² | - |
| 1778165140 | 8.89° C | 49% | 1296.5 hPa | 0 mm | - | 368 W/m² | - |
| 1778164838 | 7.78° C | 52% | 1296.5 hPa | 0 mm | - | 354 W/m² | - |
| 1778164535 | 8.89° C | 50% | 1296.2 hPa | 0 mm | - | 339 W/m² | - |
* Rain latest hour (hover to see other rain measurements)
** Current wind speed in m/s (hover to see current wind gust speed)